createdAt,value
2022-11-14T00:01:12.995Z,60.70
2022-11-14T00:03:59.208Z,57.00
2022-11-14T00:06:45.739Z,59.70
2022-11-14T00:09:31.962Z,55.50
2022-11-14T00:12:18.150Z,54.60
2022-11-14T00:15:05.034Z,55.40
2022-11-14T00:17:51.747Z,53.90
2022-11-14T00:20:37.955Z,59.00
2022-11-14T00:23:24.323Z,54.20
2022-11-14T00:26:10.730Z,56.90
2022-11-14T00:28:57.590Z,59.10
2022-11-14T00:31:43.997Z,63.50
2022-11-14T00:34:30.304Z,64.30
2022-11-14T00:37:16.857Z,54.90
2022-11-14T00:40:04.314Z,56.80
2022-11-14T00:42:50.797Z,58.50
2022-11-14T00:45:37.293Z,62.40
2022-11-14T00:48:23.727Z,56.80
2022-11-14T00:51:10.117Z,56.30
2022-11-14T00:53:56.592Z,57.90
2022-11-14T00:56:42.847Z,52.40
2022-11-14T00:59:29.111Z,53.70
2022-11-14T01:02:15.385Z,61.20
2022-11-14T01:05:02.346Z,58.50
2022-11-14T01:07:48.447Z,57.80
2022-11-14T01:10:34.862Z,54.20
2022-11-14T01:13:21.441Z,52.70
2022-11-14T01:16:08.502Z,51.60
2022-11-14T01:18:54.901Z,49.10
2022-11-14T01:21:41.446Z,49.20
2022-11-14T01:24:28.036Z,52.90
2022-11-14T01:27:14.264Z,50.50
2022-11-14T01:30:00.537Z,41.30
2022-11-14T01:32:46.886Z,37.70
2022-11-14T01:35:36.518Z,37.20
2022-11-14T01:38:23.081Z,39.70
2022-11-14T01:41:13.900Z,44.90
2022-11-14T01:44:00.306Z,38.40
2022-11-14T01:46:57.509Z,39.60
2022-11-14T01:49:48.624Z,33.90
2022-11-14T01:52:39.363Z,34.70
2022-11-14T01:55:27.355Z,35.50
2022-11-14T01:58:16.608Z,38.00
2022-11-14T02:01:04.003Z,39.00
2022-11-14T02:03:54.390Z,39.20
2022-11-14T02:06:40.913Z,41.40
2022-11-14T02:09:31.973Z,41.40
2022-11-14T02:12:19.954Z,38.30
2022-11-14T02:15:06.984Z,39.00
2022-11-14T02:17:53.663Z,38.00
2022-11-14T02:20:43.377Z,37.60
2022-11-14T02:23:32.660Z,39.30
2022-11-14T02:26:21.845Z,39.90
2022-11-14T02:29:11.449Z,32.90
2022-11-14T02:31:58.092Z,30.80
2022-11-14T02:34:44.354Z,32.50
2022-11-14T02:37:30.823Z,34.70
2022-11-14T02:40:17.587Z,33.30
2022-11-14T02:43:04.176Z,31.80
2022-11-14T02:45:50.398Z,32.70
2022-11-14T02:48:36.578Z,35.10
2022-11-14T02:51:22.957Z,35.80
2022-11-14T02:54:09.276Z,34.40
2022-11-14T02:56:55.627Z,33.10
2022-11-14T02:59:41.938Z,39.70
2022-11-14T03:02:28.698Z,34.60
2022-11-14T03:05:15.067Z,37.80
2022-11-14T03:08:01.437Z,36.20
2022-11-14T03:10:47.858Z,36.20
2022-11-14T03:13:34.704Z,39.40
2022-11-14T03:16:21.845Z,37.40
2022-11-14T03:19:08.167Z,38.80
2022-11-14T03:21:54.434Z,39.50
2022-11-14T03:24:40.672Z,37.40
2022-11-14T03:27:27.255Z,38.30
2022-11-14T03:30:14.513Z,38.60
2022-11-14T03:33:00.944Z,41.70
2022-11-14T03:35:50.782Z,44.50
2022-11-14T03:38:37.309Z,41.50
2022-11-14T03:41:23.769Z,40.70
2022-11-14T03:44:10.297Z,41.50
2022-11-14T03:46:56.624Z,41.40
2022-11-14T03:49:45.036Z,45.50
2022-11-14T03:52:31.244Z,38.10
2022-11-14T03:55:17.386Z,38.80
2022-11-14T03:58:03.926Z,42.40
2022-11-14T04:00:50.299Z,42.30
2022-11-14T04:03:36.469Z,42.40
2022-11-14T04:06:22.966Z,42.00
2022-11-14T04:09:10.628Z,39.70
2022-11-14T04:11:56.767Z,42.90
2022-11-14T04:14:43.200Z,44.00
2022-11-14T04:17:29.341Z,43.90
2022-11-14T04:20:15.858Z,44.10
2022-11-14T04:23:02.311Z,47.50
2022-11-14T04:25:48.771Z,43.20
2022-11-14T04:28:34.941Z,47.00
2022-11-14T04:31:21.124Z,50.30
2022-11-14T04:34:07.801Z,47.60
2022-11-14T04:36:54.378Z,43.70
2022-11-14T04:39:40.482Z,42.80
2022-11-14T04:42:27.198Z,44.40
2022-11-14T04:45:13.478Z,40.70
2022-11-14T04:48:00.101Z,39.20
2022-11-14T04:50:46.752Z,43.20
2022-11-14T04:53:33.339Z,43.70
2022-11-14T04:56:23.174Z,47.10
2022-11-14T04:59:09.728Z,42.70
2022-11-14T05:01:56.403Z,44.90
2022-11-14T05:04:44.492Z,46.90
2022-11-14T05:07:30.720Z,42.70
2022-11-14T05:10:17.078Z,47.30
2022-11-14T05:13:03.777Z,44.40
2022-11-14T05:15:50.295Z,43.20
2022-11-14T05:18:37.476Z,43.30
2022-11-14T05:21:23.939Z,42.60
2022-11-14T05:24:10.490Z,45.10
2022-11-14T05:26:56.798Z,46.20
2022-11-14T05:29:43.232Z,48.10
2022-11-14T05:32:29.821Z,41.30
2022-11-14T05:35:16.087Z,39.10
2022-11-14T05:38:02.433Z,42.60
2022-11-14T05:40:49.043Z,42.80
2022-11-14T05:43:35.590Z,44.90
2022-11-14T05:46:21.935Z,40.10
2022-11-14T05:49:08.561Z,42.60
2022-11-14T05:51:55.201Z,42.60
2022-11-14T05:54:41.459Z,42.50
2022-11-14T05:57:27.912Z,45.30
2022-11-14T06:00:15.311Z,44.40
2022-11-14T06:03:01.651Z,44.00
2022-11-14T06:05:47.906Z,47.40
2022-11-14T06:08:35.249Z,44.60
2022-11-14T06:11:22.001Z,43.10
2022-11-14T06:14:10.920Z,43.90
2022-11-14T06:16:57.803Z,48.50
2022-11-14T06:19:44.063Z,46.40
2022-11-14T06:22:30.803Z,41.30
2022-11-14T06:25:17.241Z,43.70
2022-11-14T06:28:03.673Z,39.90
2022-11-14T06:30:49.857Z,41.20
2022-11-14T06:33:37.534Z,38.10
2022-11-14T06:36:24.307Z,38.70
2022-11-14T06:39:10.923Z,42.20
2022-11-14T06:41:57.085Z,40.60
2022-11-14T06:44:43.321Z,36.70
2022-11-14T06:47:29.841Z,42.60
2022-11-14T06:50:16.218Z,43.60
2022-11-14T06:53:02.520Z,45.30
2022-11-14T06:55:59.405Z,42.20
2022-11-14T06:58:50.390Z,44.90
2022-11-14T07:01:37.261Z,43.30
2022-11-14T07:04:23.769Z,40.90
2022-11-14T07:07:10.331Z,43.10
2022-11-14T07:09:58.815Z,42.90
2022-11-14T07:12:45.418Z,43.30
2022-11-14T07:15:31.700Z,47.50
2022-11-14T07:18:18.357Z,42.30
2022-11-14T07:21:06.692Z,43.80
2022-11-14T07:23:53.549Z,41.20
2022-11-14T07:26:40.074Z,44.20
2022-11-14T07:29:26.209Z,42.40
2022-11-14T07:32:12.417Z,39.00
2022-11-14T07:35:02.129Z,44.70
2022-11-14T07:37:50.108Z,40.80
2022-11-14T07:40:36.602Z,39.80
2022-11-14T07:43:23.969Z,39.70
2022-11-14T07:46:15.604Z,41.70
2022-11-14T07:49:01.990Z,46.00
2022-11-14T07:51:48.324Z,37.80
2022-11-14T07:54:34.685Z,36.70
2022-11-14T07:57:21.191Z,33.70
2022-11-14T08:00:08.849Z,31.60
2022-11-14T08:02:55.158Z,32.90
2022-11-14T08:05:41.723Z,35.40
2022-11-14T08:08:28.564Z,33.00
2022-11-14T08:11:31.758Z,31.80
2022-11-14T08:14:21.549Z,27.80
2022-11-14T08:17:07.901Z,27.00
2022-11-14T08:19:54.493Z,30.00
2022-11-14T08:22:40.705Z,25.60
2022-11-14T08:25:27.002Z,25.70
2022-11-14T08:28:13.167Z,25.40
2022-11-14T08:31:02.073Z,25.90
2022-11-14T08:33:50.381Z,25.00
2022-11-14T08:36:36.863Z,23.10
2022-11-14T08:39:23.286Z,25.90
2022-11-14T08:42:09.877Z,24.80
2022-11-14T08:44:56.291Z,22.70
2022-11-14T08:47:42.521Z,26.20
2022-11-14T08:50:28.915Z,28.10
2022-11-14T08:53:15.134Z,23.80
2022-11-14T08:56:02.164Z,23.60
2022-11-14T08:58:48.423Z,23.20
2022-11-14T09:01:34.747Z,23.20
2022-11-14T09:04:20.934Z,22.90
2022-11-14T09:07:08.159Z,22.30
2022-11-14T09:09:54.462Z,22.60
2022-11-14T09:12:40.582Z,23.70
2022-11-14T09:15:29.026Z,23.80
2022-11-14T09:18:15.418Z,22.00
2022-11-14T09:21:08.659Z,23.30
2022-11-14T09:24:00.532Z,21.00
2022-11-14T09:26:55.023Z,21.10
2022-11-14T09:29:43.749Z,22.20
2022-11-14T09:32:30.234Z,24.10
2022-11-14T09:35:17.364Z,24.50
2022-11-14T09:38:09.889Z,21.00
2022-11-14T09:41:21.718Z,23.10
2022-11-14T09:44:41.825Z,24.70
2022-11-14T09:47:41.036Z,20.90
2022-11-14T09:50:34.159Z,21.10
2022-11-14T09:53:32.367Z,20.00
2022-11-14T09:56:26.640Z,22.30
2022-11-14T09:59:14.866Z,21.50
2022-11-14T10:02:10.558Z,20.10
2022-11-14T10:05:34.761Z,21.10
2022-11-14T10:08:59.881Z,23.20
2022-11-14T10:12:07.545Z,23.40
2022-11-14T10:15:45.573Z,20.70
2022-11-14T10:19:10.596Z,22.90
2022-11-14T10:22:11.815Z,23.30
2022-11-14T10:25:27.789Z,26.00
2022-11-14T10:29:02.618Z,24.00
2022-11-14T10:32:33.957Z,26.80
2022-11-14T10:35:33.856Z,26.60
2022-11-14T10:38:33.854Z,24.00
2022-11-14T10:41:49.966Z,26.70
2022-11-14T10:44:43.347Z,27.50
2022-11-14T10:47:40.796Z,27.50
2022-11-14T10:50:42.945Z,28.30
2022-11-14T10:53:54.878Z,30.00
2022-11-14T10:56:54.327Z,25.70
2022-11-14T10:59:41.105Z,28.60
2022-11-14T11:02:53.293Z,30.90
2022-11-14T11:05:59.910Z,30.40
2022-11-14T11:09:05.237Z,30.90
2022-11-14T11:12:01.850Z,29.80
2022-11-14T11:15:07.924Z,32.50
2022-11-14T11:17:59.937Z,35.60
2022-11-14T11:21:13.193Z,34.60
2022-11-14T11:23:59.885Z,37.00
2022-11-14T11:26:46.425Z,36.60
2022-11-14T11:29:32.547Z,40.00
2022-11-14T11:32:26.601Z,39.50
2022-11-14T11:35:16.974Z,45.70
2022-11-14T11:38:05.307Z,44.40
2022-11-14T11:41:00.697Z,45.50
2022-11-14T11:44:11.698Z,47.30
2022-11-14T11:47:02.081Z,44.40
2022-11-14T11:49:54.226Z,41.10
2022-11-14T11:53:16.554Z,44.30
2022-11-14T11:59:46.876Z,47.80
2022-11-14T12:02:36.985Z,48.50
2022-11-14T12:06:02.038Z,43.70
2022-11-14T12:09:14.745Z,40.80
2022-11-14T12:12:08.154Z,41.70
2022-11-14T12:15:11.287Z,46.30
2022-11-14T12:18:24.911Z,49.80
2022-11-14T12:21:58.574Z,44.60
2022-11-14T12:24:55.079Z,50.40
2022-11-14T12:28:14.863Z,52.80
2022-11-14T12:31:06.244Z,56.60
2022-11-14T12:34:07.772Z,60.90
2022-11-14T12:36:54.649Z,69.00
2022-11-14T12:39:41.310Z,64.60
2022-11-14T12:42:28.530Z,81.10
2022-11-14T12:45:36.271Z,77.80
2022-11-14T12:48:25.681Z,60.50
2022-11-14T12:51:34.990Z,70.10
2022-11-14T12:54:47.194Z,68.80
2022-11-14T12:58:08.739Z,70.50
2022-11-14T13:01:00.032Z,71.50
2022-11-14T13:04:14.213Z,70.60
2022-11-14T13:07:32.946Z,82.10
2022-11-14T13:10:52.829Z,78.30
2022-11-14T13:14:21.022Z,67.10
2022-11-14T13:17:34.993Z,53.40
2022-11-14T13:20:44.945Z,52.70
2022-11-14T13:23:43.510Z,53.40
2022-11-14T13:26:30.128Z,54.90
2022-11-14T13:29:41.379Z,56.20
2022-11-14T13:32:42.723Z,61.80
2022-11-14T13:35:50.632Z,55.60
2022-11-14T13:38:57.414Z,55.20
2022-11-14T13:42:01.591Z,57.30
2022-11-14T13:45:31.538Z,57.70
2022-11-14T13:49:06.709Z,50.80
2022-11-14T13:51:54.567Z,59.60
2022-11-14T13:54:51.634Z,56.60
2022-11-14T13:57:52.443Z,58.90
2022-11-14T14:01:07.553Z,56.50
2022-11-14T14:04:21.931Z,52.90
2022-11-14T14:07:52.226Z,52.70
2022-11-14T14:11:12.645Z,65.20
2022-11-14T14:14:33.227Z,60.70
2022-11-14T14:17:45.272Z,52.80
2022-11-14T14:21:08.777Z,53.50
2022-11-14T14:24:48.295Z,55.00
2022-11-14T14:28:00.879Z,49.60
2022-11-14T14:31:14.888Z,56.30
2022-11-14T14:34:01.275Z,54.20
2022-11-14T14:36:54.604Z,54.30
2022-11-14T14:39:41.148Z,57.60
2022-11-14T14:42:38.370Z,60.70
2022-11-14T14:45:28.104Z,53.20
2022-11-14T14:48:26.819Z,54.20
2022-11-14T14:51:14.532Z,52.20
2022-11-14T14:54:01.682Z,51.80
2022-11-14T14:57:00.899Z,60.40
2022-11-14T14:59:47.189Z,56.90
2022-11-14T15:02:34.629Z,55.00
2022-11-14T15:05:27.658Z,52.10
2022-11-14T15:08:16.940Z,51.10
2022-11-14T15:11:05.856Z,50.90
2022-11-14T15:13:58.312Z,53.70
2022-11-14T15:16:50.057Z,51.20
2022-11-14T15:19:45.111Z,49.80
2022-11-14T15:22:32.716Z,49.20
2022-11-14T15:25:20.419Z,54.50
2022-11-14T15:28:21.539Z,47.20
2022-11-14T15:31:19.416Z,53.60
2022-11-14T15:34:24.414Z,51.20
2022-11-14T15:37:13.264Z,54.30
2022-11-14T15:40:20.598Z,50.00
2022-11-14T15:43:43.920Z,49.10
2022-11-14T15:46:41.171Z,48.90
2022-11-14T15:49:28.060Z,46.90
2022-11-14T15:52:24.616Z,51.80
2022-11-14T15:55:19.972Z,51.10
2022-11-14T15:58:27.821Z,51.20
2022-11-14T16:01:23.853Z,46.90
2022-11-14T16:04:19.058Z,51.90
2022-11-14T16:07:06.429Z,48.00
2022-11-14T16:09:53.225Z,53.30
2022-11-14T16:12:40.026Z,53.20
2022-11-14T16:15:26.543Z,56.20
2022-11-14T16:18:12.814Z,51.20
2022-11-14T16:20:59.769Z,49.30
2022-11-14T16:23:46.224Z,51.60
2022-11-14T16:26:33.104Z,51.50
2022-11-14T16:29:19.804Z,49.40
2022-11-14T16:32:06.022Z,49.30
2022-11-14T16:34:52.312Z,55.60
2022-11-14T16:37:38.547Z,48.10
2022-11-14T16:40:27.781Z,50.60
2022-11-14T16:43:14.914Z,51.30
2022-11-14T16:46:09.589Z,53.40
2022-11-14T16:48:56.048Z,50.70
2022-11-14T16:51:48.830Z,54.80
2022-11-14T16:54:36.250Z,50.80
2022-11-14T16:57:23.895Z,55.80
2022-11-14T17:00:13.322Z,58.10
2022-11-14T17:02:59.905Z,58.30
2022-11-14T17:05:51.666Z,58.70
2022-11-14T17:08:38.358Z,53.00
2022-11-14T17:11:26.436Z,54.80
2022-11-14T17:14:13.199Z,61.20
2022-11-14T17:17:02.699Z,58.50
2022-11-14T17:19:49.946Z,60.40
2022-11-14T17:22:36.471Z,62.20
2022-11-14T17:25:23.991Z,57.70
2022-11-14T17:28:10.806Z,61.70
2022-11-14T17:30:57.725Z,57.70
2022-11-14T17:33:44.894Z,56.20
2022-11-14T17:36:31.536Z,60.50
2022-11-14T17:39:18.013Z,61.40
2022-11-14T17:42:05.393Z,58.10
2022-11-14T17:44:51.831Z,58.80
2022-11-14T17:47:38.186Z,61.20
2022-11-14T17:50:24.664Z,56.40
2022-11-14T17:53:11.026Z,58.70
2022-11-14T17:55:57.579Z,60.40
2022-11-14T17:58:45.861Z,55.50
2022-11-14T18:01:32.515Z,54.60
2022-11-14T18:04:19.007Z,57.90
2022-11-14T18:07:05.344Z,57.20
2022-11-14T18:09:52.026Z,59.60
2022-11-14T18:12:38.708Z,58.90
2022-11-14T18:15:27.900Z,55.70
2022-11-14T18:18:14.444Z,57.20
2022-11-14T18:21:16.338Z,63.40
2022-11-14T18:24:02.757Z,55.40
2022-11-14T18:26:49.504Z,57.90
2022-11-14T18:29:36.118Z,58.50
2022-11-14T18:32:22.469Z,54.70
2022-11-14T18:35:09.910Z,54.60
2022-11-14T18:37:57.887Z,55.20
2022-11-14T18:40:44.421Z,57.10
2022-11-14T18:43:32.819Z,56.20
2022-11-14T18:46:23.261Z,57.70
2022-11-14T18:49:11.186Z,61.90
2022-11-14T18:51:58.359Z,63.50
2022-11-14T18:54:46.688Z,64.50
2022-11-14T18:57:33.245Z,56.50
2022-11-14T19:00:19.642Z,59.60
2022-11-14T19:03:06.644Z,58.30
2022-11-14T19:05:52.997Z,58.10
2022-11-14T19:08:40.708Z,57.10
2022-11-14T19:11:46.061Z,55.60
2022-11-14T19:14:32.966Z,62.60
2022-11-14T19:17:22.687Z,51.60
2022-11-14T19:20:14.345Z,55.00
2022-11-14T19:23:01.116Z,52.50
2022-11-14T19:25:47.480Z,52.30
2022-11-14T19:28:33.868Z,52.00
2022-11-14T19:31:21.747Z,56.40
2022-11-14T19:34:10.055Z,53.30
2022-11-14T19:37:00.955Z,42.10
2022-11-14T19:39:47.618Z,51.80
2022-11-14T19:42:33.746Z,45.40
2022-11-14T19:45:20.007Z,37.60
2022-11-14T19:48:06.294Z,30.20
2022-11-14T19:51:00.765Z,24.70
2022-11-14T19:53:47.367Z,15.40
2022-11-14T19:56:33.864Z,16.00
2022-11-14T19:59:24.199Z,31.50
2022-11-14T20:02:15.666Z,21.80
2022-11-14T20:05:01.917Z,23.90
2022-11-14T20:07:48.388Z,15.80
2022-11-14T20:10:47.781Z,12.10
2022-11-14T20:13:42.485Z,13.00
2022-11-14T20:16:32.910Z,12.20
2022-11-14T20:19:19.499Z,17.00
2022-11-14T20:22:10.285Z,20.10
2022-11-14T20:24:56.691Z,15.40
2022-11-14T20:27:42.904Z,16.30
2022-11-14T20:30:29.437Z,16.00
2022-11-14T20:33:15.814Z,12.10
2022-11-14T20:36:07.351Z,10.30
2022-11-14T20:38:54.716Z,12.00
2022-11-14T20:41:40.960Z,8.30
2022-11-14T20:44:27.651Z,9.50
2022-11-14T20:47:14.315Z,9.30
2022-11-14T20:50:00.897Z,8.40
2022-11-14T20:52:48.168Z,8.30
2022-11-14T20:55:34.565Z,11.10
2022-11-14T20:58:21.099Z,9.70
2022-11-14T21:01:10.322Z,10.20
2022-11-14T21:03:56.794Z,8.60
2022-11-14T21:06:43.060Z,7.50
2022-11-14T21:09:29.321Z,9.60
2022-11-14T21:12:15.496Z,9.90
2022-11-14T21:15:01.947Z,7.40
2022-11-14T21:17:48.566Z,5.50
2022-11-14T21:20:34.854Z,6.50
2022-11-14T21:23:21.489Z,7.60
2022-11-14T21:26:39.787Z,6.90
2022-11-14T21:29:27.559Z,7.70
2022-11-14T21:32:14.067Z,7.90
2022-11-14T21:35:01.744Z,10.10
2022-11-14T21:37:51.211Z,8.70
2022-11-14T21:40:38.142Z,6.90
2022-11-14T21:43:25.080Z,6.40
2022-11-14T21:46:17.836Z,10.20
2022-11-14T21:49:04.846Z,8.50
2022-11-14T21:51:52.416Z,9.60
2022-11-14T21:54:39.011Z,12.50
2022-11-14T21:57:25.882Z,10.80
2022-11-14T22:00:13.774Z,8.30
2022-11-14T22:03:19.167Z,7.90
2022-11-14T22:06:06.517Z,8.00
2022-11-14T22:08:55.716Z,10.40
2022-11-14T22:11:42.621Z,11.70
2022-11-14T22:14:29.694Z,10.60
2022-11-14T22:17:16.218Z,6.80
2022-11-14T22:20:04.258Z,12.90
2022-11-14T22:22:54.760Z,9.30
2022-11-14T22:25:41.341Z,8.80
2022-11-14T22:28:29.450Z,6.00
2022-11-14T22:31:23.022Z,9.10
2022-11-14T22:34:12.204Z,8.80
2022-11-14T22:36:59.396Z,6.40
2022-11-14T22:39:46.405Z,5.00
2022-11-14T22:42:33.084Z,6.10
2022-11-14T22:45:20.046Z,6.70
2022-11-14T22:48:06.811Z,8.40
2022-11-14T22:51:08.998Z,5.30
2022-11-14T22:53:58.191Z,5.70
2022-11-14T22:56:44.373Z,8.10
2022-11-14T22:59:30.821Z,7.10
2022-11-14T23:02:17.133Z,8.30
2022-11-14T23:05:03.494Z,7.10
2022-11-14T23:07:49.837Z,5.20
2022-11-14T23:10:36.709Z,7.30
2022-11-14T23:13:22.923Z,9.40
2022-11-14T23:16:15.298Z,6.20
2022-11-14T23:19:04.840Z,6.90
2022-11-14T23:21:51.375Z,5.50
2022-11-14T23:24:37.637Z,4.50
2022-11-14T23:27:24.436Z,4.10
2022-11-14T23:30:12.619Z,7.20
2022-11-14T23:32:59.075Z,5.30
2022-11-14T23:35:45.476Z,4.90
2022-11-14T23:38:31.728Z,10.10
2022-11-14T23:41:25.494Z,4.70
2022-11-14T23:44:12.019Z,8.90
2022-11-14T23:46:58.425Z,5.90
2022-11-14T23:49:44.685Z,6.90
2022-11-14T23:52:31.037Z,5.40
2022-11-14T23:55:17.638Z,7.60
2022-11-14T23:58:04.308Z,9.90
